Time,TemperatureF,DewpointF,PressureIn,WindDirection,WindDirectionDegrees,WindSpeedMPH,WindSpeedGustMPH,Humidity,HourlyPrecipIn,Conditions,Clouds,dailyrainin,SoftwareType,DateUTC
2013-11-22 00:12:00,37.5,34.0,30.33,South,190,1.0,2.0,87,0.00,,,0.00,weatherlink.com 1.10,2013-11-22 05:12:00,
2013-11-22 00:27:00,37.5,34.0,30.31,South,190,0.0,0.0,87,0.00,,,0.00,weatherlink.com 1.10,2013-11-22 05:27:00,
2013-11-22 00:42:00,37.0,34.0,30.30,South,190,0.0,2.0,87,0.00,,,0.00,weatherlink.com 1.10,2013-11-22 05:42:00,
2013-11-22 00:57:00,36.4,34.0,30.29,South,190,0.0,0.0,89,0.00,,,0.00,weatherlink.com 1.10,2013-11-22 05:57:00,
2013-11-22 01:12:00,36.2,34.0,30.29,South,190,1.0,2.0,90,0.00,,,0.00,weatherlink.com 1.10,2013-11-22 06:12:00,
2013-11-22 01:27:00,36.5,34.0,30.28,SSW,192,0.0,2.0,90,0.00,,,0.00,weatherlink.com 1.10,2013-11-22 06:27:00,
2013-11-22 01:42:00,36.9,35.0,30.28,SSW,192,0.0,1.0,92,0.00,,,0.00,weatherlink.com 1.10,2013-11-22 06:42:00,
2013-11-22 01:57:00,37.0,35.0,30.28,SSW,192,0.0,2.0,93,0.00,,,0.00,weatherlink.com 1.10,2013-11-22 06:57:00,
2013-11-22 02:12:00,36.9,35.0,30.27,SSW,192,0.0,1.0,93,0.00,,,0.00,weatherlink.com 1.10,2013-11-22 07:12:00,
2013-11-22 02:27:00,36.7,35.0,30.26,SSW,192,0.0,0.0,94,0.00,,,0.00,weatherlink.com 1.10,2013-11-22 07:27:00,
2013-11-22 02:42:00,36.6,35.0,30.24,SSW,192,0.0,2.0,94,0.00,,,0.00,weatherlink.com 1.10,2013-11-22 07:42:00,
2013-11-22 02:57:00,36.5,35.0,30.23,SSW,192,0.0,1.0,94,0.00,,,0.00,weatherlink.com 1.10,2013-11-22 07:57:00,
2013-11-22 03:12:00,36.9,36.0,30.23,SSW,192,0.0,3.0,95,0.00,,,0.00,weatherlink.com 1.10,2013-11-22 08:12:00,
2013-11-22 03:27:00,37.0,36.0,30.23,SSW,192,0.0,2.0,94,0.00,,,0.00,weatherlink.com 1.10,2013-11-22 08:27:00,
2013-11-22 03:42:00,36.7,35.0,30.21,SSW,192,0.0,1.0,94,0.00,,,0.00,weatherlink.com 1.10,2013-11-22 08:42:00,
2013-11-22 03:57:00,36.9,36.0,30.20,SSW,198,0.0,2.0,95,0.00,,,0.00,weatherlink.com 1.10,2013-11-22 08:57:00,
2013-11-22 04:12:00,37.4,36.0,30.21,SSW,198,0.0,1.0,95,0.00,,,0.00,weatherlink.com 1.10,2013-11-22 09:12:00,
2013-11-22 04:27:00,38.6,37.0,30.20,NW,315,0.0,5.0,94,0.00,,,0.00,weatherlink.com 1.10,2013-11-22 09:27:00,
2013-11-22 04:42:00,39.4,37.0,30.19,North,355,0.0,2.0,92,0.00,,,0.00,weatherlink.com 1.10,2013-11-22 09:42:00,
2013-11-22 04:57:00,38.8,37.0,30.18,North,355,0.0,1.0,93,0.00,,,0.00,weatherlink.com 1.10,2013-11-22 09:57:00,
2013-11-22 05:12:00,39.0,38.0,30.17,NE,51,0.0,2.0,95,0.00,,,0.00,weatherlink.com 1.10,2013-11-22 10:12:00,
2013-11-22 05:27:00,39.5,38.0,30.16,NE,51,0.0,2.0,94,0.00,,,0.00,weatherlink.com 1.10,2013-11-22 10:27:00,
2013-11-22 05:42:00,39.4,38.0,30.16,NE,51,0.0,0.0,94,0.00,,,0.00,weatherlink.com 1.10,2013-11-22 10:42:00,
2013-11-22 05:57:00,39.0,38.0,30.16,NE,51,0.0,0.0,95,0.00,,,0.00,weatherlink.com 1.10,2013-11-22 10:57:00,
2013-11-22 06:12:00,39.2,38.0,30.16,NE,53,0.0,3.0,95,0.00,,,0.00,weatherlink.com 1.10,2013-11-22 11:12:00,
2013-11-22 06:28:00,-999.0,-99.9,30.13,North,-999,-999.0,-999.0,-999,0.00,,,0.00,weatherlink.com 1.10,2013-11-22 11:28:00,
2013-11-22 06:43:00,-999.0,-99.9,30.13,North,-999,-999.0,-999.0,-999,0.00,,,0.00,weatherlink.com 1.10,2013-11-22 11:43:00,
2013-11-22 06:58:00,-999.0,-99.9,30.12,North,-999,-999.0,-999.0,-999,0.00,,,0.00,weatherlink.com 1.10,2013-11-22 11:58:00,
2013-11-22 07:13:00,-999.0,-99.9,30.12,North,-999,-999.0,-999.0,-999,0.00,,,0.00,weatherlink.com 1.10,2013-11-22 12:13:00,
2013-11-22 07:28:00,-999.0,-99.9,30.11,North,-999,-999.0,-999.0,-999,0.00,,,0.00,weatherlink.com 1.10,2013-11-22 12:28:00,
2013-11-22 07:43:00,-999.0,-99.9,30.10,North,-999,-999.0,-999.0,-999,0.00,,,0.00,weatherlink.com 1.10,2013-11-22 12:43:00,
2013-11-22 07:58:00,-999.0,-99.9,30.10,North,-999,-999.0,-999.0,-999,0.00,,,0.00,weatherlink.com 1.10,2013-11-22 12:58:00,
2013-11-22 08:13:00,-999.0,-99.9,30.09,North,-999,-999.0,-999.0,-999,0.00,,,0.00,weatherlink.com 1.10,2013-11-22 13:13:00,
2013-11-22 08:28:00,-999.0,-99.9,30.09,North,-999,-999.0,-999.0,-999,0.00,,,0.00,weatherlink.com 1.10,2013-11-22 13:28:00,
2013-11-22 08:43:00,-999.0,-99.9,30.09,North,-999,-999.0,-999.0,-999,0.00,,,0.00,weatherlink.com 1.10,2013-11-22 13:43:00,
2013-11-22 08:58:00,-999.0,-99.9,30.09,North,-999,-999.0,-999.0,-999,0.00,,,0.00,weatherlink.com 1.10,2013-11-22 13:58:00,
2013-11-22 09:13:00,-999.0,-99.9,30.08,North,-999,-999.0,-999.0,-999,0.00,,,0.00,weatherlink.com 1.10,2013-11-22 14:13:00,
2013-11-22 09:28:00,-999.0,-99.9,30.08,North,-999,-999.0,-999.0,-999,0.00,,,0.00,weatherlink.com 1.10,2013-11-22 14:28:00,
2013-11-22 09:44:00,-999.0,-99.9,30.08,North,-999,-999.0,-999.0,-999,0.00,,,0.00,weatherlink.com 1.10,2013-11-22 14:44:00,
2013-11-22 09:59:00,-999.0,-99.9,30.07,North,-999,-999.0,-999.0,-999,0.00,,,0.00,weatherlink.com 1.10,2013-11-22 14:59:00,
2013-11-22 10:14:00,-999.0,-99.9,30.06,North,-999,-999.0,-999.0,-999,0.00,,,0.00,weatherlink.com 1.10,2013-11-22 15:14:00,
2013-11-22 10:29:00,-999.0,-99.9,30.05,North,-999,-999.0,-999.0,-999,0.00,,,0.00,weatherlink.com 1.10,2013-11-22 15:29:00,
2013-11-22 10:44:00,-999.0,-99.9,30.04,North,-999,-999.0,-999.0,-999,0.00,,,0.00,weatherlink.com 1.10,2013-11-22 15:44:00,
2013-11-22 10:59:00,-999.0,-99.9,30.04,North,-999,-999.0,-999.0,-999,0.00,,,0.00,weatherlink.com 1.10,2013-11-22 15:59:00,
2013-11-22 11:14:00,-999.0,-99.9,30.04,North,-999,-999.0,-999.0,-999,0.00,,,0.00,weatherlink.com 1.10,2013-11-22 16:14:00,
2013-11-22 11:29:00,-999.0,-99.9,30.03,North,-999,-999.0,-999.0,-999,0.00,,,0.00,weatherlink.com 1.10,2013-11-22 16:29:00,
2013-11-22 11:44:00,-999.0,-99.9,30.02,North,-999,-999.0,-999.0,-999,0.00,,,0.00,weatherlink.com 1.10,2013-11-22 16:44:00,
2013-11-22 11:59:00,-999.0,-99.9,30.00,North,-999,-999.0,-999.0,-999,0.00,,,0.00,weatherlink.com 1.10,2013-11-22 16:59:00,
2013-11-22 12:14:00,-999.0,-99.9,30.00,North,-999,-999.0,-999.0,-999,0.00,,,0.00,weatherlink.com 1.10,2013-11-22 17:14:00,
2013-11-22 12:29:00,-999.0,-99.9,29.99,North,-999,-999.0,-999.0,-999,0.00,,,0.00,weatherlink.com 1.10,2013-11-22 17:29:00,
2013-11-22 12:44:00,-999.0,-99.9,30.00,North,-999,-999.0,-999.0,-999,0.00,,,0.00,weatherlink.com 1.10,2013-11-22 17:44:00,
2013-11-22 13:00:00,-999.0,-99.9,29.99,North,-999,-999.0,-999.0,-999,0.00,,,0.00,weatherlink.com 1.10,2013-11-22 18:00:00,
2013-11-22 13:15:00,-999.0,-99.9,29.98,North,-999,-999.0,-999.0,-999,0.00,,,0.00,weatherlink.com 1.10,2013-11-22 18:15:00,
2013-11-22 13:30:00,-999.0,-99.9,29.97,North,-999,-999.0,-999.0,-999,0.00,,,0.00,weatherlink.com 1.10,2013-11-22 18:30:00,
2013-11-22 13:45:00,-999.0,-99.9,29.96,North,-999,-999.0,-999.0,-999,0.00,,,0.00,weatherlink.com 1.10,2013-11-22 18:45:00,
2013-11-22 14:00:00,-999.0,-99.9,29.96,North,-999,-999.0,-999.0,-999,0.00,,,0.00,weatherlink.com 1.10,2013-11-22 19:00:00,
2013-11-22 14:15:00,-999.0,-99.9,29.97,North,-999,-999.0,-999.0,-999,0.00,,,0.00,weatherlink.com 1.10,2013-11-22 19:15:00,
2013-11-22 14:30:00,-999.0,-99.9,29.95,North,-999,-999.0,-999.0,-999,0.00,,,0.00,weatherlink.com 1.10,2013-11-22 19:30:00,
2013-11-22 14:45:00,-999.0,-99.9,29.96,North,-999,-999.0,-999.0,-999,0.00,,,0.00,weatherlink.com 1.10,2013-11-22 19:45:00,
2013-11-22 15:00:00,-999.0,-99.9,29.96,North,-999,-999.0,-999.0,-999,0.00,,,0.00,weatherlink.com 1.10,2013-11-22 20:00:00,
2013-11-22 15:15:00,-999.0,-99.9,29.96,North,-999,-999.0,-999.0,-999,0.00,,,0.00,weatherlink.com 1.10,2013-11-22 20:15:00,
2013-11-22 15:30:00,-999.0,-99.9,29.95,North,-999,-999.0,-999.0,-999,0.00,,,0.00,weatherlink.com 1.10,2013-11-22 20:30:00,
2013-11-22 15:45:00,-999.0,-99.9,29.94,North,-999,-999.0,-999.0,-999,0.00,,,0.00,weatherlink.com 1.10,2013-11-22 20:45:00,
2013-11-22 16:00:00,-999.0,-99.9,29.94,North,-999,-999.0,-999.0,-999,0.00,,,0.00,weatherlink.com 1.10,2013-11-22 21:00:00,
2013-11-22 16:15:00,-999.0,-99.9,29.94,North,-999,-999.0,-999.0,-999,0.00,,,0.00,weatherlink.com 1.10,2013-11-22 21:15:00,
2013-11-22 16:31:00,-999.0,-99.9,29.93,North,-999,-999.0,-999.0,-999,0.00,,,0.00,weatherlink.com 1.10,2013-11-22 21:31:00,
2013-11-22 16:46:00,-999.0,-99.9,29.93,North,-999,-999.0,-999.0,-999,0.00,,,0.00,weatherlink.com 1.10,2013-11-22 21:46:00,
2013-11-22 17:01:00,-999.0,-99.9,29.93,North,-999,-999.0,-999.0,-999,0.00,,,0.00,weatherlink.com 1.10,2013-11-22 22:01:00,
2013-11-22 17:16:00,-999.0,-99.9,29.92,North,-999,-999.0,-999.0,-999,0.00,,,0.00,weatherlink.com 1.10,2013-11-22 22:16:00,
2013-11-22 17:31:00,-999.0,-99.9,29.91,North,-999,-999.0,-999.0,-999,0.00,,,0.00,weatherlink.com 1.10,2013-11-22 22:31:00,
2013-11-22 17:46:00,-999.0,-99.9,29.90,North,-999,-999.0,-999.0,-999,0.00,,,0.00,weatherlink.com 1.10,2013-11-22 22:46:00,
2013-11-22 18:01:00,-999.0,-99.9,29.90,North,-999,-999.0,-999.0,-999,0.00,,,0.00,weatherlink.com 1.10,2013-11-22 23:01:00,
2013-11-22 18:16:00,-999.0,-99.9,29.90,North,-999,-999.0,-999.0,-999,0.00,,,0.00,weatherlink.com 1.10,2013-11-22 23:16:00,
2013-11-22 18:31:00,-999.0,-99.9,29.89,North,-999,-999.0,-999.0,-999,0.00,,,0.00,weatherlink.com 1.10,2013-11-22 23:31:00,
2013-11-22 18:46:00,-999.0,-99.9,29.89,North,-999,-999.0,-999.0,-999,0.00,,,0.00,weatherlink.com 1.10,2013-11-22 23:46:00,
2013-11-22 19:01:00,-999.0,-99.9,29.89,North,-999,-999.0,-999.0,-999,0.00,,,0.00,weatherlink.com 1.10,2013-11-23 00:01:00,
2013-11-22 19:16:00,-999.0,-99.9,29.88,North,-999,-999.0,-999.0,-999,0.00,,,0.00,weatherlink.com 1.10,2013-11-23 00:16:00,
2013-11-22 19:31:00,-999.0,-99.9,29.89,North,-999,-999.0,-999.0,-999,0.00,,,0.00,weatherlink.com 1.10,2013-11-23 00:31:00,
2013-11-22 19:47:00,-999.0,-99.9,29.88,North,-999,-999.0,-999.0,-999,0.00,,,0.00,weatherlink.com 1.10,2013-11-23 00:47:00,
2013-11-22 20:02:00,-999.0,-99.9,29.87,North,-999,-999.0,-999.0,-999,0.00,,,0.00,weatherlink.com 1.10,2013-11-23 01:02:00,
2013-11-22 20:17:00,-999.0,-99.9,29.87,North,-999,-999.0,-999.0,-999,0.00,,,0.00,weatherlink.com 1.10,2013-11-23 01:17:00,
2013-11-22 20:32:00,-999.0,-99.9,29.86,North,-999,-999.0,-999.0,-999,0.00,,,0.00,weatherlink.com 1.10,2013-11-23 01:32:00,
2013-11-22 20:47:00,-999.0,-99.9,29.86,North,-999,-999.0,-999.0,-999,0.00,,,0.00,weatherlink.com 1.10,2013-11-23 01:47:00,
2013-11-22 21:02:00,-999.0,-99.9,29.85,North,-999,-999.0,-999.0,-999,0.00,,,0.00,weatherlink.com 1.10,2013-11-23 02:02:00,
2013-11-22 21:17:00,-999.0,-99.9,29.85,North,-999,-999.0,-999.0,-999,0.00,,,0.00,weatherlink.com 1.10,2013-11-23 02:17:00,
2013-11-22 21:32:00,-999.0,-99.9,29.85,North,-999,-999.0,-999.0,-999,0.00,,,0.00,weatherlink.com 1.10,2013-11-23 02:32:00,
2013-11-22 21:47:00,-999.0,-99.9,29.85,North,-999,-999.0,-999.0,-999,0.00,,,0.00,weatherlink.com 1.10,2013-11-23 02:47:00,
2013-11-22 22:02:00,-999.0,-99.9,29.84,North,-999,-999.0,-999.0,-999,0.00,,,0.00,weatherlink.com 1.10,2013-11-23 03:02:00,
2013-11-22 22:17:00,-999.0,-99.9,29.84,North,-999,-999.0,-999.0,-999,0.00,,,0.00,weatherlink.com 1.10,2013-11-23 03:17:00,
2013-11-22 22:32:00,-999.0,-99.9,29.84,North,-999,-999.0,-999.0,-999,0.00,,,0.00,weatherlink.com 1.10,2013-11-23 03:32:00,
2013-11-22 22:47:00,-999.0,-99.9,29.85,North,-999,-999.0,-999.0,-999,0.00,,,0.00,weatherlink.com 1.10,2013-11-23 03:47:00,
2013-11-22 23:03:00,-999.0,-99.9,29.85,North,-999,-999.0,-999.0,-999,0.00,,,0.00,weatherlink.com 1.10,2013-11-23 04:03:00,
2013-11-22 23:18:00,-999.0,-99.9,29.85,North,-999,-999.0,-999.0,-999,0.00,,,0.00,weatherlink.com 1.10,2013-11-23 04:18:00,
2013-11-22 23:33:00,-999.0,-99.9,29.85,North,-999,-999.0,-999.0,-999,0.00,,,0.00,weatherlink.com 1.10,2013-11-23 04:33:00,
2013-11-22 23:48:00,-999.0,-99.9,29.86,North,-999,-999.0,-999.0,-999,0.00,,,0.00,weatherlink.com 1.10,2013-11-23 04:48:00,